sensor_id;sensor_type;location;lat;lon;timestamp;P1;durP1;ratioP1;P2;durP2;ratioP2
52188;SDS011;38162;45.926;13.608;2023-06-22T00:01:56;13.68;;;9.45;;
52188;SDS011;38162;45.926;13.608;2023-06-22T00:04:21;14.20;;;9.35;;
52188;SDS011;38162;45.926;13.608;2023-06-22T00:06:47;14.23;;;9.48;;
52188;SDS011;38162;45.926;13.608;2023-06-22T00:09:13;14.10;;;9.73;;
52188;SDS011;38162;45.926;13.608;2023-06-22T00:11:38;14.68;;;9.50;;
52188;SDS011;38162;45.926;13.608;2023-06-22T00:14:04;10.60;;;8.80;;
52188;SDS011;38162;45.926;13.608;2023-06-22T00:16:31;11.32;;;9.18;;
52188;SDS011;38162;45.926;13.608;2023-06-22T00:18:57;13.65;;;9.48;;
52188;SDS011;38162;45.926;13.608;2023-06-22T00:21:26;15.98;;;9.65;;
52188;SDS011;38162;45.926;13.608;2023-06-22T00:23:52;10.68;;;9.57;;
52188;SDS011;38162;45.926;13.608;2023-06-22T00:26:18;16.52;;;9.27;;
52188;SDS011;38162;45.926;13.608;2023-06-22T00:28:44;13.38;;;9.30;;
52188;SDS011;38162;45.926;13.608;2023-06-22T00:31:09;14.02;;;9.02;;
52188;SDS011;38162;45.926;13.608;2023-06-22T00:33:35;12.32;;;8.73;;
52188;SDS011;38162;45.926;13.608;2023-06-22T00:36:01;11.90;;;9.15;;
52188;SDS011;38162;45.926;13.608;2023-06-22T00:38:28;11.13;;;9.18;;
52188;SDS011;38162;45.926;13.608;2023-06-22T00:40:54;12.57;;;9.40;;
52188;SDS011;38162;45.926;13.608;2023-06-22T00:43:19;15.82;;;9.70;;
52188;SDS011;38162;45.926;13.608;2023-06-22T00:45:45;12.30;;;9.18;;
52188;SDS011;38162;45.926;13.608;2023-06-22T00:48:12;10.65;;;9.07;;
52188;SDS011;38162;45.926;13.608;2023-06-22T00:50:38;12.48;;;10.10;;
52188;SDS011;38162;45.926;13.608;2023-06-22T00:53:05;14.05;;;9.60;;
52188;SDS011;38162;45.926;13.608;2023-06-22T00:55:37;12.75;;;9.85;;
52188;SDS011;38162;45.926;13.608;2023-06-22T00:58:07;15.00;;;10.57;;
52188;SDS011;38162;45.926;13.608;2023-06-22T01:00:35;16.80;;;10.35;;
52188;SDS011;38162;45.926;13.608;2023-06-22T01:03:02;17.80;;;10.38;;
52188;SDS011;38162;45.926;13.608;2023-06-22T01:05:28;15.30;;;10.10;;
52188;SDS011;38162;45.926;13.608;2023-06-22T01:10:45;17.83;;;10.57;;
52188;SDS011;38162;45.926;13.608;2023-06-22T01:15:43;15.88;;;10.80;;
52188;SDS011;38162;45.926;13.608;2023-06-22T01:18:14;12.70;;;9.90;;
52188;SDS011;38162;45.926;13.608;2023-06-22T01:20:43;17.27;;;9.80;;
52188;SDS011;38162;45.926;13.608;2023-06-22T01:28:46;15.77;;;10.50;;
52188;SDS011;38162;45.926;13.608;2023-06-22T01:31:18;11.68;;;9.60;;
52188;SDS011;38162;45.926;13.608;2023-06-22T01:33:53;15.15;;;10.18;;
52188;SDS011;38162;45.926;13.608;2023-06-22T01:36:22;14.23;;;9.25;;
52188;SDS011;38162;45.926;13.608;2023-06-22T01:38:49;14.18;;;10.55;;
52188;SDS011;38162;45.926;13.608;2023-06-22T01:41:17;16.15;;;10.02;;
52188;SDS011;38162;45.926;13.608;2023-06-22T01:43:44;12.48;;;9.63;;
52188;SDS011;38162;45.926;13.608;2023-06-22T01:46:11;11.25;;;9.50;;
52188;SDS011;38162;45.926;13.608;2023-06-22T01:48:37;14.60;;;10.52;;
52188;SDS011;38162;45.926;13.608;2023-06-22T01:51:04;16.17;;;11.00;;
52188;SDS011;38162;45.926;13.608;2023-06-22T01:53:30;15.68;;;9.90;;
52188;SDS011;38162;45.926;13.608;2023-06-22T01:55:56;14.70;;;10.02;;
52188;SDS011;38162;45.926;13.608;2023-06-22T01:58:26;17.48;;;9.50;;
52188;SDS011;38162;45.926;13.608;2023-06-22T02:00:54;14.57;;;9.75;;
52188;SDS011;38162;45.926;13.608;2023-06-22T02:03:35;14.98;;;9.45;;
52188;SDS011;38162;45.926;13.608;2023-06-22T02:06:06;14.45;;;8.55;;
52188;SDS011;38162;45.926;13.608;2023-06-22T02:08:40;14.60;;;9.52;;
52188;SDS011;38162;45.926;13.608;2023-06-22T02:11:11;14.00;;;9.25;;
52188;SDS011;38162;45.926;13.608;2023-06-22T02:13:40;14.13;;;9.43;;
52188;SDS011;38162;45.926;13.608;2023-06-22T02:16:08;12.95;;;8.65;;
52188;SDS011;38162;45.926;13.608;2023-06-22T02:18:36;14.65;;;9.15;;
52188;SDS011;38162;45.926;13.608;2023-06-22T02:21:02;14.68;;;9.25;;
52188;SDS011;38162;45.926;13.608;2023-06-22T02:23:28;12.52;;;8.65;;
52188;SDS011;38162;45.926;13.608;2023-06-22T02:25:54;13.50;;;8.57;;
52188;SDS011;38162;45.926;13.608;2023-06-22T02:28:20;12.23;;;8.98;;
52188;SDS011;38162;45.926;13.608;2023-06-22T02:30:45;11.48;;;8.20;;
52188;SDS011;38162;45.926;13.608;2023-06-22T02:33:11;24.88;;;10.20;;
52188;SDS011;38162;45.926;13.608;2023-06-22T02:35:37;14.57;;;10.18;;
52188;SDS011;38162;45.926;13.608;2023-06-22T02:38:04;16.88;;;9.32;;
52188;SDS011;38162;45.926;13.608;2023-06-22T02:40:30;16.98;;;9.43;;
52188;SDS011;38162;45.926;13.608;2023-06-22T02:42:56;14.43;;;9.20;;
52188;SDS011;38162;45.926;13.608;2023-06-22T02:45:27;14.57;;;9.40;;
52188;SDS011;38162;45.926;13.608;2023-06-22T02:47:52;11.48;;;9.73;;
52188;SDS011;38162;45.926;13.608;2023-06-22T02:50:18;16.20;;;9.52;;
52188;SDS011;38162;45.926;13.608;2023-06-22T02:52:44;12.85;;;9.85;;
52188;SDS011;38162;45.926;13.608;2023-06-22T02:55:10;17.65;;;9.38;;
52188;SDS011;38162;45.926;13.608;2023-06-22T02:57:35;13.43;;;9.27;;
52188;SDS011;38162;45.926;13.608;2023-06-22T03:00:02;16.55;;;10.40;;
52188;SDS011;38162;45.926;13.608;2023-06-22T03:02:42;18.58;;;9.52;;
52188;SDS011;38162;45.926;13.608;2023-06-22T03:05:09;13.63;;;9.70;;
52188;SDS011;38162;45.926;13.608;2023-06-22T03:07:38;18.42;;;9.52;;
52188;SDS011;38162;45.926;13.608;2023-06-22T03:10:08;15.73;;;10.18;;
52188;SDS011;38162;45.926;13.608;2023-06-22T03:12:34;23.13;;;10.40;;
52188;SDS011;38162;45.926;13.608;2023-06-22T03:15:01;17.80;;;9.25;;
52188;SDS011;38162;45.926;13.608;2023-06-22T03:17:26;17.65;;;9.50;;
52188;SDS011;38162;45.926;13.608;2023-06-22T03:19:52;21.40;;;10.15;;
52188;SDS011;38162;45.926;13.608;2023-06-22T03:22:18;11.68;;;8.73;;
52188;SDS011;38162;45.926;13.608;2023-06-22T03:24:44;17.15;;;10.00;;
52188;SDS011;38162;45.926;13.608;2023-06-22T03:27:09;15.05;;;9.38;;
52188;SDS011;38162;45.926;13.608;2023-06-22T03:29:35;15.45;;;8.93;;
52188;SDS011;38162;45.926;13.608;2023-06-22T03:32:01;16.45;;;9.40;;
52188;SDS011;38162;45.926;13.608;2023-06-22T03:34:27;20.60;;;9.43;;
52188;SDS011;38162;45.926;13.608;2023-06-22T03:36:52;16.25;;;10.13;;
52188;SDS011;38162;45.926;13.608;2023-06-22T03:39:18;15.73;;;10.30;;
52188;SDS011;38162;45.926;13.608;2023-06-22T03:41:45;14.20;;;9.57;;
52188;SDS011;38162;45.926;13.608;2023-06-22T03:44:10;14.32;;;9.68;;
52188;SDS011;38162;45.926;13.608;2023-06-22T03:46:37;16.67;;;10.20;;
52188;SDS011;38162;45.926;13.608;2023-06-22T03:49:03;18.45;;;10.32;;
52188;SDS011;38162;45.926;13.608;2023-06-22T03:51:30;15.88;;;10.23;;
52188;SDS011;38162;45.926;13.608;2023-06-22T03:53:56;28.73;;;10.55;;
52188;SDS011;38162;45.926;13.608;2023-06-22T03:56:21;19.58;;;10.20;;
52188;SDS011;38162;45.926;13.608;2023-06-22T03:58:47;16.30;;;10.52;;
52188;SDS011;38162;45.926;13.608;2023-06-22T04:01:13;22.98;;;10.40;;
52188;SDS011;38162;45.926;13.608;2023-06-22T04:03:39;21.23;;;11.00;;
52188;SDS011;38162;45.926;13.608;2023-06-22T04:06:06;18.50;;;10.52;;
52188;SDS011;38162;45.926;13.608;2023-06-22T04:08:31;19.33;;;10.68;;
52188;SDS011;38162;45.926;13.608;2023-06-22T04:10:57;16.92;;;10.68;;
52188;SDS011;38162;45.926;13.608;2023-06-22T04:13:23;15.73;;;10.27;;
52188;SDS011;38162;45.926;13.608;2023-06-22T04:15:49;21.75;;;9.50;;
52188;SDS011;38162;45.926;13.608;2023-06-22T04:18:14;19.73;;;10.20;;
52188;SDS011;38162;45.926;13.608;2023-06-22T04:20:40;15.20;;;10.73;;
52188;SDS011;38162;45.926;13.608;2023-06-22T04:23:06;19.95;;;10.10;;
52188;SDS011;38162;45.926;13.608;2023-06-22T04:25:32;16.05;;;9.82;;
52188;SDS011;38162;45.926;13.608;2023-06-22T04:27:57;23.70;;;11.02;;
52188;SDS011;38162;45.926;13.608;2023-06-22T04:30:23;16.98;;;10.50;;
52188;SDS011;38162;45.926;13.608;2023-06-22T04:32:49;18.95;;;10.63;;
52188;SDS011;38162;45.926;13.608;2023-06-22T04:35:24;19.05;;;9.75;;
52188;SDS011;38162;45.926;13.608;2023-06-22T04:37:50;24.38;;;10.02;;
52188;SDS011;38162;45.926;13.608;2023-06-22T04:40:21;16.85;;;9.55;;
52188;SDS011;38162;45.926;13.608;2023-06-22T04:42:49;15.45;;;9.90;;
52188;SDS011;38162;45.926;13.608;2023-06-22T04:45:19;18.25;;;9.65;;
52188;SDS011;38162;45.926;13.608;2023-06-22T04:47:45;15.00;;;9.95;;
52188;SDS011;38162;45.926;13.608;2023-06-22T04:50:11;13.90;;;10.40;;
52188;SDS011;38162;45.926;13.608;2023-06-22T04:52:37;20.48;;;10.52;;
52188;SDS011;38162;45.926;13.608;2023-06-22T04:55:03;16.63;;;11.35;;
52188;SDS011;38162;45.926;13.608;2023-06-22T04:57:30;21.05;;;10.90;;
52188;SDS011;38162;45.926;13.608;2023-06-22T04:59:58;19.02;;;11.55;;
52188;SDS011;38162;45.926;13.608;2023-06-22T05:02:36;21.10;;;11.85;;
52188;SDS011;38162;45.926;13.608;2023-06-22T05:05:02;26.48;;;11.20;;
52188;SDS011;38162;45.926;13.608;2023-06-22T05:07:32;14.52;;;10.70;;
52188;SDS011;38162;45.926;13.608;2023-06-22T05:09:58;14.65;;;10.45;;
52188;SDS011;38162;45.926;13.608;2023-06-22T05:12:25;22.48;;;10.57;;
52188;SDS011;38162;45.926;13.608;2023-06-22T05:14:50;23.13;;;10.00;;
52188;SDS011;38162;45.926;13.608;2023-06-22T05:17:16;20.02;;;9.75;;
52188;SDS011;38162;45.926;13.608;2023-06-22T05:19:44;22.65;;;9.63;;
52188;SDS011;38162;45.926;13.608;2023-06-22T05:22:14;19.77;;;10.80;;
52188;SDS011;38162;45.926;13.608;2023-06-22T05:24:41;22.02;;;10.80;;
52188;SDS011;38162;45.926;13.608;2023-06-22T05:27:07;20.35;;;9.68;;
52188;SDS011;38162;45.926;13.608;2023-06-22T05:29:34;17.95;;;10.05;;
52188;SDS011;38162;45.926;13.608;2023-06-22T05:32:00;15.70;;;10.02;;
52188;SDS011;38162;45.926;13.608;2023-06-22T05:34:26;14.65;;;9.60;;
52188;SDS011;38162;45.926;13.608;2023-06-22T05:36:52;15.15;;;9.45;;
52188;SDS011;38162;45.926;13.608;2023-06-22T05:39:17;19.58;;;10.43;;
52188;SDS011;38162;45.926;13.608;2023-06-22T05:41:44;22.85;;;10.35;;
52188;SDS011;38162;45.926;13.608;2023-06-22T05:44:10;15.68;;;9.68;;
52188;SDS011;38162;45.926;13.608;2023-06-22T05:46:36;18.58;;;10.13;;
52188;SDS011;38162;45.926;13.608;2023-06-22T05:49:05;16.10;;;10.23;;
52188;SDS011;38162;45.926;13.608;2023-06-22T05:51:31;17.58;;;10.02;;
52188;SDS011;38162;45.926;13.608;2023-06-22T05:53:57;20.40;;;10.00;;
52188;SDS011;38162;45.926;13.608;2023-06-22T05:56:22;20.77;;;11.52;;
52188;SDS011;38162;45.926;13.608;2023-06-22T05:58:48;17.92;;;10.07;;
52188;SDS011;38162;45.926;13.608;2023-06-22T06:01:14;22.10;;;10.45;;
52188;SDS011;38162;45.926;13.608;2023-06-22T06:03:40;20.40;;;9.88;;
52188;SDS011;38162;45.926;13.608;2023-06-22T06:06:06;18.25;;;9.68;;
52188;SDS011;38162;45.926;13.608;2023-06-22T06:08:33;21.85;;;9.68;;
52188;SDS011;38162;45.926;13.608;2023-06-22T06:10:58;16.20;;;9.43;;
52188;SDS011;38162;45.926;13.608;2023-06-22T06:13:24;12.75;;;9.00;;
52188;SDS011;38162;45.926;13.608;2023-06-22T06:15:50;15.35;;;9.15;;
52188;SDS011;38162;45.926;13.608;2023-06-22T06:18:16;16.15;;;8.68;;
52188;SDS011;38162;45.926;13.608;2023-06-22T06:20:42;16.27;;;9.77;;
52188;SDS011;38162;45.926;13.608;2023-06-22T06:23:08;16.00;;;9.15;;
52188;SDS011;38162;45.926;13.608;2023-06-22T06:25:34;14.48;;;8.55;;
52188;SDS011;38162;45.926;13.608;2023-06-22T06:27:59;15.98;;;9.48;;
52188;SDS011;38162;45.926;13.608;2023-06-22T06:30:25;13.98;;;8.20;;
52188;SDS011;38162;45.926;13.608;2023-06-22T06:32:51;14.02;;;9.57;;
52188;SDS011;38162;45.926;13.608;2023-06-22T06:35:17;20.08;;;9.30;;
52188;SDS011;38162;45.926;13.608;2023-06-22T06:37:43;19.05;;;9.98;;
52188;SDS011;38162;45.926;13.608;2023-06-22T06:40:11;20.52;;;9.02;;
52188;SDS011;38162;45.926;13.608;2023-06-22T06:42:38;22.42;;;9.60;;
52188;SDS011;38162;45.926;13.608;2023-06-22T06:45:18;13.95;;;8.80;;
52188;SDS011;38162;45.926;13.608;2023-06-22T06:47:48;16.30;;;8.80;;
52188;SDS011;38162;45.926;13.608;2023-06-22T06:50:14;15.38;;;8.95;;
52188;SDS011;38162;45.926;13.608;2023-06-22T06:52:41;25.45;;;8.80;;
52188;SDS011;38162;45.926;13.608;2023-06-22T06:55:08;16.55;;;9.18;;
52188;SDS011;38162;45.926;13.608;2023-06-22T06:57:40;18.23;;;8.52;;
52188;SDS011;38162;45.926;13.608;2023-06-22T07:00:07;18.17;;;8.90;;
52188;SDS011;38162;45.926;13.608;2023-06-22T07:02:37;15.20;;;8.10;;
52188;SDS011;38162;45.926;13.608;2023-06-22T07:05:05;18.05;;;8.48;;
52188;SDS011;38162;45.926;13.608;2023-06-22T07:07:31;18.02;;;8.75;;
52188;SDS011;38162;45.926;13.608;2023-06-22T07:09:57;25.58;;;8.40;;
52188;SDS011;38162;45.926;13.608;2023-06-22T07:12:23;15.45;;;8.40;;
52188;SDS011;38162;45.926;13.608;2023-06-22T07:14:49;15.70;;;8.40;;
52188;SDS011;38162;45.926;13.608;2023-06-22T07:17:16;16.88;;;7.90;;
52188;SDS011;38162;45.926;13.608;2023-06-22T07:19:41;17.50;;;9.05;;
52188;SDS011;38162;45.926;13.608;2023-06-22T07:22:07;14.25;;;8.45;;
52188;SDS011;38162;45.926;13.608;2023-06-22T07:24:33;17.88;;;8.07;;
52188;SDS011;38162;45.926;13.608;2023-06-22T07:26:59;18.33;;;7.78;;
52188;SDS011;38162;45.926;13.608;2023-06-22T07:29:25;24.83;;;8.68;;
52188;SDS011;38162;45.926;13.608;2023-06-22T07:31:51;21.83;;;9.30;;
52188;SDS011;38162;45.926;13.608;2023-06-22T07:34:18;15.82;;;8.35;;
52188;SDS011;38162;45.926;13.608;2023-06-22T07:36:44;13.73;;;8.30;;
52188;SDS011;38162;45.926;13.608;2023-06-22T07:39:11;15.63;;;8.13;;
52188;SDS011;38162;45.926;13.608;2023-06-22T07:41:38;17.00;;;8.05;;
52188;SDS011;38162;45.926;13.608;2023-06-22T07:44:05;18.55;;;8.57;;
52188;SDS011;38162;45.926;13.608;2023-06-22T07:46:32;19.05;;;8.48;;
52188;SDS011;38162;45.926;13.608;2023-06-22T07:48:58;13.05;;;8.32;;
52188;SDS011;38162;45.926;13.608;2023-06-22T07:51:24;19.55;;;8.05;;
52188;SDS011;38162;45.926;13.608;2023-06-22T07:53:50;20.30;;;8.25;;
52188;SDS011;38162;45.926;13.608;2023-06-22T07:56:16;15.57;;;8.05;;
52188;SDS011;38162;45.926;13.608;2023-06-22T07:58:45;14.45;;;8.13;;
52188;SDS011;38162;45.926;13.608;2023-06-22T08:01:11;21.98;;;8.75;;
52188;SDS011;38162;45.926;13.608;2023-06-22T08:03:37;19.42;;;8.65;;
52188;SDS011;38162;45.926;13.608;2023-06-22T08:06:04;16.40;;;9.18;;
52188;SDS011;38162;45.926;13.608;2023-06-22T08:08:33;19.02;;;8.93;;
52188;SDS011;38162;45.926;13.608;2023-06-22T08:11:00;16.63;;;9.20;;
52188;SDS011;38162;45.926;13.608;2023-06-22T08:13:25;17.33;;;10.18;;
52188;SDS011;38162;45.926;13.608;2023-06-22T08:15:51;16.10;;;9.52;;
52188;SDS011;38162;45.926;13.608;2023-06-22T08:18:17;18.33;;;9.52;;
52188;SDS011;38162;45.926;13.608;2023-06-22T08:20:42;17.33;;;9.73;;
52188;SDS011;38162;45.926;13.608;2023-06-22T08:23:08;16.52;;;9.70;;
52188;SDS011;38162;45.926;13.608;2023-06-22T08:25:34;17.92;;;10.63;;
52188;SDS011;38162;45.926;13.608;2023-06-22T08:28:01;16.85;;;10.30;;
52188;SDS011;38162;45.926;13.608;2023-06-22T08:30:27;17.42;;;10.82;;
52188;SDS011;38162;45.926;13.608;2023-06-22T08:32:53;16.80;;;10.20;;
52188;SDS011;38162;45.926;13.608;2023-06-22T08:35:20;12.65;;;10.00;;
52188;SDS011;38162;45.926;13.608;2023-06-22T08:37:49;26.10;;;12.43;;
52188;SDS011;38162;45.926;13.608;2023-06-22T08:40:17;18.70;;;10.30;;
52188;SDS011;38162;45.926;13.608;2023-06-22T08:42:45;19.92;;;11.27;;
52188;SDS011;38162;45.926;13.608;2023-06-22T08:45:11;18.17;;;10.05;;
52188;SDS011;38162;45.926;13.608;2023-06-22T08:47:37;17.23;;;10.98;;
52188;SDS011;38162;45.926;13.608;2023-06-22T08:50:04;19.17;;;10.93;;
52188;SDS011;38162;45.926;13.608;2023-06-22T08:52:31;24.85;;;11.05;;
52188;SDS011;38162;45.926;13.608;2023-06-22T08:54:57;16.17;;;11.40;;
52188;SDS011;38162;45.926;13.608;2023-06-22T08:57:23;20.10;;;11.10;;
52188;SDS011;38162;45.926;13.608;2023-06-22T08:59:49;15.05;;;11.32;;
52188;SDS011;38162;45.926;13.608;2023-06-22T09:02:17;15.55;;;11.70;;
52188;SDS011;38162;45.926;13.608;2023-06-22T09:04:43;17.77;;;12.25;;
52188;SDS011;38162;45.926;13.608;2023-06-22T09:07:09;21.83;;;11.88;;
52188;SDS011;38162;45.926;13.608;2023-06-22T09:09:34;18.38;;;12.30;;
52188;SDS011;38162;45.926;13.608;2023-06-22T09:12:00;13.75;;;12.05;;
52188;SDS011;38162;45.926;13.608;2023-06-22T09:14:26;14.95;;;12.10;;
52188;SDS011;38162;45.926;13.608;2023-06-22T09:16:52;18.85;;;12.73;;
52188;SDS011;38162;45.926;13.608;2023-06-22T09:19:18;16.00;;;11.88;;
52188;SDS011;38162;45.926;13.608;2023-06-22T09:21:44;19.33;;;13.45;;
52188;SDS011;38162;45.926;13.608;2023-06-22T09:24:13;20.65;;;12.45;;
52188;SDS011;38162;45.926;13.608;2023-06-22T09:26:39;22.38;;;13.25;;
52188;SDS011;38162;45.926;13.608;2023-06-22T09:29:05;21.83;;;12.38;;
52188;SDS011;38162;45.926;13.608;2023-06-22T09:31:31;15.93;;;11.38;;
52188;SDS011;38162;45.926;13.608;2023-06-22T09:33:57;15.07;;;12.05;;
52188;SDS011;38162;45.926;13.608;2023-06-22T09:36:23;22.50;;;12.80;;
52188;SDS011;38162;45.926;13.608;2023-06-22T09:38:49;15.25;;;11.55;;
52188;SDS011;38162;45.926;13.608;2023-06-22T09:41:23;18.92;;;12.45;;
52188;SDS011;38162;45.926;13.608;2023-06-22T09:43:49;20.83;;;12.40;;
52188;SDS011;38162;45.926;13.608;2023-06-22T09:46:16;16.48;;;12.35;;
52188;SDS011;38162;45.926;13.608;2023-06-22T09:48:42;20.27;;;13.18;;
52188;SDS011;38162;45.926;13.608;2023-06-22T09:51:08;19.70;;;12.52;;
52188;SDS011;38162;45.926;13.608;2023-06-22T09:53:34;20.08;;;12.65;;
52188;SDS011;38162;45.926;13.608;2023-06-22T09:56:00;25.13;;;13.70;;
52188;SDS011;38162;45.926;13.608;2023-06-22T09:58:27;25.77;;;12.50;;
52188;SDS011;38162;45.926;13.608;2023-06-22T10:00:53;22.02;;;11.23;;
52188;SDS011;38162;45.926;13.608;2023-06-22T10:03:19;17.48;;;12.45;;
52188;SDS011;38162;45.926;13.608;2023-06-22T10:05:48;16.45;;;11.85;;
52188;SDS011;38162;45.926;13.608;2023-06-22T10:08:14;16.80;;;12.23;;
52188;SDS011;38162;45.926;13.608;2023-06-22T10:10:40;14.38;;;11.45;;
52188;SDS011;38162;45.926;13.608;2023-06-22T10:13:09;21.08;;;12.07;;
52188;SDS011;38162;45.926;13.608;2023-06-22T10:15:36;16.67;;;12.23;;
52188;SDS011;38162;45.926;13.608;2023-06-22T10:18:03;22.30;;;12.52;;
52188;SDS011;38162;45.926;13.608;2023-06-22T10:20:29;26.33;;;11.65;;
52188;SDS011;38162;45.926;13.608;2023-06-22T10:22:55;22.42;;;12.40;;
52188;SDS011;38162;45.926;13.608;2023-06-22T10:25:21;23.15;;;12.88;;
52188;SDS011;38162;45.926;13.608;2023-06-22T10:27:47;16.92;;;12.90;;
52188;SDS011;38162;45.926;13.608;2023-06-22T10:30:13;20.23;;;12.15;;
52188;SDS011;38162;45.926;13.608;2023-06-22T10:32:42;19.75;;;13.50;;
52188;SDS011;38162;45.926;13.608;2023-06-22T10:35:09;18.13;;;11.93;;
52188;SDS011;38162;45.926;13.608;2023-06-22T10:37:41;17.33;;;12.55;;
52188;SDS011;38162;45.926;13.608;2023-06-22T10:40:13;21.58;;;12.40;;
52188;SDS011;38162;45.926;13.608;2023-06-22T10:42:41;32.80;;;12.55;;
52188;SDS011;38162;45.926;13.608;2023-06-22T10:45:07;17.23;;;12.55;;
52188;SDS011;38162;45.926;13.608;2023-06-22T10:47:34;17.15;;;12.60;;
52188;SDS011;38162;45.926;13.608;2023-06-22T10:50:00;24.42;;;12.38;;
52188;SDS011;38162;45.926;13.608;2023-06-22T10:52:27;20.98;;;13.15;;
52188;SDS011;38162;45.926;13.608;2023-06-22T10:54:55;18.50;;;11.93;;
52188;SDS011;38162;45.926;13.608;2023-06-22T10:57:21;18.55;;;12.35;;
52188;SDS011;38162;45.926;13.608;2023-06-22T10:59:47;19.45;;;12.40;;
52188;SDS011;38162;45.926;13.608;2023-06-22T11:02:17;19.17;;;12.13;;
52188;SDS011;38162;45.926;13.608;2023-06-22T11:04:43;20.67;;;12.93;;
52188;SDS011;38162;45.926;13.608;2023-06-22T11:07:09;18.33;;;12.32;;
52188;SDS011;38162;45.926;13.608;2023-06-22T11:09:35;18.55;;;12.20;;
52188;SDS011;38162;45.926;13.608;2023-06-22T11:12:04;19.08;;;11.32;;
52188;SDS011;38162;45.926;13.608;2023-06-22T11:14:31;15.80;;;11.95;;
52188;SDS011;38162;45.926;13.608;2023-06-22T11:16:58;18.25;;;11.85;;
52188;SDS011;38162;45.926;13.608;2023-06-22T11:19:25;18.83;;;12.75;;
52188;SDS011;38162;45.926;13.608;2023-06-22T11:21:50;20.80;;;12.38;;
52188;SDS011;38162;45.926;13.608;2023-06-22T11:24:17;24.42;;;11.75;;
52188;SDS011;38162;45.926;13.608;2023-06-22T11:26:43;15.25;;;11.40;;
52188;SDS011;38162;45.926;13.608;2023-06-22T11:29:09;22.92;;;12.10;;
52188;SDS011;38162;45.926;13.608;2023-06-22T11:31:35;21.92;;;11.75;;
52188;SDS011;38162;45.926;13.608;2023-06-22T11:34:02;25.98;;;11.85;;
52188;SDS011;38162;45.926;13.608;2023-06-22T11:36:28;23.20;;;11.73;;
52188;SDS011;38162;45.926;13.608;2023-06-22T11:38:57;22.05;;;12.45;;
52188;SDS011;38162;45.926;13.608;2023-06-22T11:41:26;20.55;;;11.63;;
52188;SDS011;38162;45.926;13.608;2023-06-22T11:43:52;20.60;;;11.38;;
52188;SDS011;38162;45.926;13.608;2023-06-22T11:46:18;18.50;;;12.40;;
52188;SDS011;38162;45.926;13.608;2023-06-22T11:48:44;19.75;;;11.90;;
52188;SDS011;38162;45.926;13.608;2023-06-22T11:51:10;24.63;;;12.20;;
52188;SDS011;38162;45.926;13.608;2023-06-22T11:53:36;19.92;;;11.57;;
52188;SDS011;38162;45.926;13.608;2023-06-22T11:56:02;21.08;;;11.65;;
52188;SDS011;38162;45.926;13.608;2023-06-22T11:58:28;17.55;;;11.77;;
52188;SDS011;38162;45.926;13.608;2023-06-22T12:00:54;25.27;;;11.70;;
52188;SDS011;38162;45.926;13.608;2023-06-22T12:03:20;24.48;;;11.35;;
52188;SDS011;38162;45.926;13.608;2023-06-22T12:05:49;18.02;;;11.68;;
52188;SDS011;38162;45.926;13.608;2023-06-22T12:08:19;34.05;;;13.50;;
52188;SDS011;38162;45.926;13.608;2023-06-22T12:10:44;17.58;;;12.18;;
52188;SDS011;38162;45.926;13.608;2023-06-22T12:13:10;22.00;;;11.88;;
52188;SDS011;38162;45.926;13.608;2023-06-22T12:15:36;25.35;;;12.63;;
52188;SDS011;38162;45.926;13.608;2023-06-22T12:18:02;27.05;;;12.38;;
52188;SDS011;38162;45.926;13.608;2023-06-22T12:20:28;21.90;;;11.60;;
52188;SDS011;38162;45.926;13.608;2023-06-22T12:22:54;21.92;;;11.98;;
52188;SDS011;38162;45.926;13.608;2023-06-22T12:25:23;21.23;;;11.85;;
52188;SDS011;38162;45.926;13.608;2023-06-22T12:27:49;31.70;;;12.85;;
52188;SDS011;38162;45.926;13.608;2023-06-22T12:30:18;20.40;;;11.30;;
52188;SDS011;38162;45.926;13.608;2023-06-22T12:32:44;24.10;;;12.10;;
52188;SDS011;38162;45.926;13.608;2023-06-22T12:35:09;18.48;;;11.70;;
52188;SDS011;38162;45.926;13.608;2023-06-22T12:37:39;19.23;;;11.13;;
52188;SDS011;38162;45.926;13.608;2023-06-22T12:40:06;18.58;;;12.15;;
52188;SDS011;38162;45.926;13.608;2023-06-22T12:42:33;21.08;;;10.80;;
52188;SDS011;38162;45.926;13.608;2023-06-22T12:44:58;16.13;;;10.95;;
52188;SDS011;38162;45.926;13.608;2023-06-22T12:47:24;25.05;;;11.48;;
52188;SDS011;38162;45.926;13.608;2023-06-22T12:49:50;19.20;;;11.77;;
52188;SDS011;38162;45.926;13.608;2023-06-22T12:52:16;22.58;;;11.38;;
52188;SDS011;38162;45.926;13.608;2023-06-22T12:54:41;16.67;;;9.45;;
52188;SDS011;38162;45.926;13.608;2023-06-22T12:57:07;17.05;;;9.90;;
52188;SDS011;38162;45.926;13.608;2023-06-22T12:59:33;16.70;;;10.07;;
52188;SDS011;38162;45.926;13.608;2023-06-22T13:01:59;14.95;;;10.07;;
52188;SDS011;38162;45.926;13.608;2023-06-22T13:04:25;22.77;;;9.80;;
52188;SDS011;38162;45.926;13.608;2023-06-22T13:06:50;16.17;;;9.80;;
52188;SDS011;38162;45.926;13.608;2023-06-22T13:09:17;16.52;;;10.18;;
52188;SDS011;38162;45.926;13.608;2023-06-22T13:11:44;15.75;;;9.60;;
52188;SDS011;38162;45.926;13.608;2023-06-22T13:14:10;18.73;;;9.57;;
52188;SDS011;38162;45.926;13.608;2023-06-22T13:16:35;13.60;;;9.15;;
52188;SDS011;38162;45.926;13.608;2023-06-22T13:19:01;20.65;;;10.30;;
52188;SDS011;38162;45.926;13.608;2023-06-22T13:21:27;18.35;;;10.15;;
52188;SDS011;38162;45.926;13.608;2023-06-22T13:23:53;17.48;;;10.13;;
52188;SDS011;38162;45.926;13.608;2023-06-22T13:26:19;11.85;;;9.38;;
52188;SDS011;38162;45.926;13.608;2023-06-22T13:28:45;18.15;;;9.68;;
52188;SDS011;38162;45.926;13.608;2023-06-22T13:31:11;20.83;;;10.55;;
52188;SDS011;38162;45.926;13.608;2023-06-22T13:33:37;18.63;;;9.90;;
52188;SDS011;38162;45.926;13.608;2023-06-22T13:36:03;21.95;;;9.98;;
52188;SDS011;38162;45.926;13.608;2023-06-22T13:38:31;23.25;;;11.00;;
52188;SDS011;38162;45.926;13.608;2023-06-22T13:40:57;21.05;;;9.73;;
52188;SDS011;38162;45.926;13.608;2023-06-22T13:43:24;24.83;;;10.52;;
52188;SDS011;38162;45.926;13.608;2023-06-22T13:45:52;13.07;;;9.65;;
52188;SDS011;38162;45.926;13.608;2023-06-22T13:48:17;21.45;;;10.52;;
52188;SDS011;38162;45.926;13.608;2023-06-22T13:50:43;25.10;;;9.88;;
52188;SDS011;38162;45.926;13.608;2023-06-22T13:53:09;19.08;;;9.52;;
52188;SDS011;38162;45.926;13.608;2023-06-22T13:55:35;22.10;;;8.95;;
52188;SDS011;38162;45.926;13.608;2023-06-22T13:58:00;17.42;;;9.73;;
52188;SDS011;38162;45.926;13.608;2023-06-22T14:00:26;23.30;;;8.90;;
52188;SDS011;38162;45.926;13.608;2023-06-22T14:02:53;15.48;;;8.98;;
52188;SDS011;38162;45.926;13.608;2023-06-22T14:05:19;20.88;;;9.05;;
52188;SDS011;38162;45.926;13.608;2023-06-22T14:07:45;16.38;;;9.05;;
52188;SDS011;38162;45.926;13.608;2023-06-22T14:10:11;22.45;;;8.98;;
52188;SDS011;38162;45.926;13.608;2023-06-22T14:12:37;23.95;;;9.25;;
52188;SDS011;38162;45.926;13.608;2023-06-22T14:15:02;20.42;;;9.13;;
52188;SDS011;38162;45.926;13.608;2023-06-22T14:17:29;22.60;;;9.25;;
52188;SDS011;38162;45.926;13.608;2023-06-22T14:19:54;20.83;;;8.55;;
52188;SDS011;38162;45.926;13.608;2023-06-22T14:22:21;15.40;;;9.10;;